createdAt,value
2023-02-14T00:00:23.197Z,74.10
2023-02-14T00:02:49.924Z,74.20
2023-02-14T00:05:16.662Z,74.30
2023-02-14T00:07:43.349Z,74.30
2023-02-14T00:10:10.383Z,74.60
2023-02-14T00:12:37.092Z,74.70
2023-02-14T00:15:03.958Z,74.80
2023-02-14T00:17:30.585Z,74.70
2023-02-14T00:19:57.167Z,74.70
2023-02-14T00:22:23.807Z,74.70
2023-02-14T00:24:50.506Z,74.80
2023-02-14T00:27:17.140Z,74.90
2023-02-14T00:29:43.777Z,75.00
2023-02-14T00:32:10.513Z,75.10
2023-02-14T00:34:37.244Z,75.20
2023-02-14T00:37:04.291Z,75.30
2023-02-14T00:39:31.084Z,75.50
2023-02-14T00:41:57.775Z,75.50
2023-02-14T00:44:24.383Z,75.60
2023-02-14T00:46:51.093Z,75.70
2023-02-14T00:49:17.890Z,75.60
2023-02-14T00:51:44.543Z,75.60
2023-02-14T00:54:11.199Z,75.80
2023-02-14T00:56:37.875Z,75.70
2023-02-14T00:59:04.528Z,75.80
2023-02-14T01:01:31.236Z,75.80
2023-02-14T01:03:57.860Z,75.90
2023-02-14T01:06:24.786Z,76.00
2023-02-14T01:08:51.435Z,76.10
2023-02-14T01:11:20.064Z,76.00
2023-02-14T01:13:47.826Z,76.10
2023-02-14T01:16:16.849Z,76.10
2023-02-14T01:18:43.482Z,76.20
2023-02-14T01:21:14.091Z,76.30
2023-02-14T01:23:41.176Z,76.40
2023-02-14T01:26:08.078Z,76.40
2023-02-14T01:28:37.635Z,76.50
2023-02-14T01:31:28.395Z,76.60
2023-02-14T01:33:55.286Z,76.70
2023-02-14T01:36:30.375Z,76.70
2023-02-14T01:38:58.625Z,76.80
2023-02-14T01:41:26.503Z,76.90
2023-02-14T01:43:58.705Z,77.00
2023-02-14T01:46:26.537Z,77.10
2023-02-14T01:48:55.718Z,77.20
2023-02-14T01:51:22.392Z,77.30
2023-02-14T01:53:49.177Z,77.40
2023-02-14T01:56:19.744Z,77.40
2023-02-14T01:58:46.379Z,77.40
2023-02-14T02:03:55.952Z,77.70
2023-02-14T02:06:31.296Z,77.90
2023-02-14T02:09:28.944Z,77.90
2023-02-14T02:14:41.436Z,78.10
2023-02-14T02:17:38.224Z,78.00
2023-02-14T02:20:25.788Z,78.10
2023-02-14T02:23:03.960Z,78.00
2023-02-14T02:25:49.315Z,78.10
2023-02-14T02:28:43.018Z,78.00
2023-02-14T02:31:19.906Z,78.10
2023-02-14T02:34:05.473Z,78.20
2023-02-14T02:36:57.212Z,78.20
2023-02-14T02:39:38.907Z,78.40
2023-02-14T02:42:44.598Z,78.30
2023-02-14T02:45:37.307Z,78.30
2023-02-14T02:48:15.285Z,78.50
2023-02-14T02:50:43.255Z,78.60
2023-02-14T02:53:24.907Z,78.50
2023-02-14T02:56:06.128Z,78.70
2023-02-14T02:58:42.623Z,78.50
2023-02-14T03:01:14.204Z,78.70
2023-02-14T03:03:41.432Z,78.70
2023-02-14T03:06:08.147Z,78.90
2023-02-14T03:08:34.813Z,78.90
2023-02-14T03:11:02.180Z,79.00
2023-02-14T03:13:37.850Z,79.00
2023-02-14T03:16:35.641Z,79.20
2023-02-14T03:19:10.242Z,79.20
2023-02-14T03:21:46.862Z,79.20
2023-02-14T03:24:37.060Z,79.20
2023-02-14T03:27:10.578Z,79.30
2023-02-14T03:29:45.630Z,79.40
2023-02-14T03:32:15.372Z,79.40
2023-02-14T03:34:45.981Z,79.50
2023-02-14T03:37:32.453Z,79.40
2023-02-14T03:40:13.430Z,79.50
2023-02-14T03:43:17.474Z,79.60
2023-02-14T03:46:04.302Z,79.70
2023-02-14T03:48:31.000Z,79.60
2023-02-14T03:50:57.946Z,79.80
2023-02-14T03:53:27.316Z,79.70
2023-02-14T03:56:14.605Z,79.80
2023-02-14T03:58:48.998Z,79.90
2023-02-14T04:01:25.887Z,79.90
2023-02-14T04:03:53.090Z,79.90
2023-02-14T04:06:20.686Z,80.10
2023-02-14T04:08:47.310Z,80.00
2023-02-14T04:11:14.009Z,80.10
2023-02-14T04:13:40.687Z,80.10
2023-02-14T04:16:07.640Z,80.10
2023-02-14T04:18:34.314Z,80.20
2023-02-14T04:21:01.323Z,80.10
2023-02-14T04:23:28.149Z,80.30
2023-02-14T04:25:54.751Z,80.30
2023-02-14T04:28:21.370Z,80.50
2023-02-14T04:30:48.039Z,80.50
2023-02-14T04:33:14.698Z,80.50
2023-02-14T04:35:41.308Z,80.50
2023-02-14T04:38:07.959Z,80.70
2023-02-14T04:40:34.542Z,80.80
2023-02-14T04:43:01.134Z,80.90
2023-02-14T04:45:27.925Z,80.80
2023-02-14T04:47:54.577Z,80.90
2023-02-14T04:50:21.287Z,80.80
2023-02-14T04:52:47.896Z,81.00
2023-02-14T04:55:14.524Z,80.90
2023-02-14T04:57:41.176Z,81.10
2023-02-14T05:00:08.326Z,81.20
2023-02-14T05:02:34.950Z,81.10
2023-02-14T05:05:01.610Z,81.20
2023-02-14T05:07:28.307Z,81.20
2023-02-14T05:09:54.984Z,81.30
2023-02-14T05:12:21.634Z,81.40
2023-02-14T05:14:48.280Z,81.50
2023-02-14T05:17:14.910Z,81.50
2023-02-14T05:19:41.620Z,81.50
2023-02-14T05:22:08.302Z,81.60
2023-02-14T05:24:34.997Z,81.80
2023-02-14T05:27:01.688Z,81.90
2023-02-14T05:29:28.370Z,81.90
2023-02-14T05:31:55.006Z,82.10
2023-02-14T05:34:21.940Z,82.10
2023-02-14T05:36:48.645Z,82.20
2023-02-14T05:39:15.360Z,82.30
2023-02-14T05:41:41.991Z,82.30
2023-02-14T05:44:08.683Z,82.40
2023-02-14T05:46:35.420Z,82.50
2023-02-14T05:49:02.067Z,82.50
2023-02-14T05:51:28.662Z,82.50
2023-02-14T05:53:55.280Z,82.60
2023-02-14T05:56:21.966Z,82.60
2023-02-14T05:58:48.636Z,82.70
2023-02-14T06:01:15.308Z,82.80
2023-02-14T06:03:41.978Z,83.00
2023-02-14T06:06:08.585Z,83.00
2023-02-14T06:08:35.247Z,83.10
2023-02-14T06:11:02.097Z,83.10
2023-02-14T06:13:28.883Z,83.20
2023-02-14T06:15:55.515Z,83.10
2023-02-14T06:18:25.886Z,83.10
2023-02-14T06:21:04.165Z,83.10
2023-02-14T06:23:38.109Z,83.10
2023-02-14T06:26:04.965Z,83.20
2023-02-14T06:28:33.536Z,83.10
2023-02-14T06:31:43.080Z,83.00
2023-02-14T06:34:10.349Z,82.80
2023-02-14T06:36:37.233Z,83.20
2023-02-14T06:39:04.075Z,83.10
2023-02-14T06:41:30.731Z,83.40
2023-02-14T06:43:57.396Z,83.70
2023-02-14T06:46:24.069Z,83.70
2023-02-14T06:48:50.773Z,83.80
2023-02-14T06:51:17.444Z,83.90
2023-02-14T06:53:44.103Z,83.90
2023-02-14T06:56:11.818Z,84.00
2023-02-14T06:58:38.546Z,84.00
2023-02-14T07:01:05.337Z,84.10
2023-02-14T07:03:32.061Z,84.10
2023-02-14T07:05:58.801Z,84.10
2023-02-14T07:08:26.445Z,84.20
2023-02-14T07:10:56.479Z,84.30
2023-02-14T07:13:23.480Z,84.30
2023-02-14T07:15:50.220Z,84.40
2023-02-14T07:18:16.933Z,84.40
2023-02-14T07:20:43.600Z,84.60
2023-02-14T07:23:10.457Z,84.70
2023-02-14T07:25:37.511Z,84.80
2023-02-14T07:28:04.260Z,84.80
2023-02-14T07:30:31.057Z,85.00
2023-02-14T07:32:58.618Z,85.00
2023-02-14T07:35:25.263Z,85.20
2023-02-14T07:37:51.934Z,85.20
2023-02-14T07:40:19.259Z,85.20
2023-02-14T07:42:52.992Z,85.30
2023-02-14T07:45:21.878Z,85.40
2023-02-14T07:47:49.539Z,85.60
2023-02-14T07:50:16.724Z,85.60
2023-02-14T07:52:44.148Z,85.60
2023-02-14T07:55:11.061Z,85.70
2023-02-14T07:57:37.783Z,85.80
2023-02-14T08:00:05.366Z,85.90
2023-02-14T08:02:32.029Z,85.90
2023-02-14T08:04:58.749Z,86.10
2023-02-14T08:07:25.477Z,86.10
2023-02-14T08:09:52.117Z,86.30
2023-02-14T08:12:20.860Z,86.40
2023-02-14T08:14:47.544Z,86.40
2023-02-14T08:17:14.242Z,86.50
2023-02-14T08:19:40.938Z,86.80
2023-02-14T08:22:07.618Z,87.50
2023-02-14T08:24:34.312Z,87.70
2023-02-14T08:27:00.961Z,88.10
2023-02-14T08:29:27.613Z,88.60
2023-02-14T08:31:54.520Z,89.20
2023-02-14T08:34:21.197Z,89.20
2023-02-14T08:36:47.828Z,88.70
2023-02-14T08:39:14.469Z,88.10
2023-02-14T08:41:41.118Z,87.50
2023-02-14T08:44:08.860Z,87.10
2023-02-14T08:46:35.885Z,86.80
2023-02-14T08:49:02.625Z,86.50
2023-02-14T08:51:29.314Z,86.30
2023-02-14T08:53:56.028Z,86.10
2023-02-14T08:56:22.841Z,86.10
2023-02-14T08:58:52.536Z,86.00
2023-02-14T09:01:19.347Z,85.90
2023-02-14T09:03:46.188Z,85.90
2023-02-14T09:06:14.387Z,85.80
2023-02-14T09:08:41.049Z,85.80
2023-02-14T09:11:15.478Z,85.80
2023-02-14T09:13:42.744Z,86.00
2023-02-14T09:16:10.511Z,86.60
2023-02-14T09:18:37.321Z,87.80
2023-02-14T09:21:09.886Z,89.30
2023-02-14T09:23:36.894Z,90.20
2023-02-14T09:26:05.059Z,89.50
2023-02-14T09:28:32.452Z,89.00
2023-02-14T09:30:59.502Z,87.50
2023-02-14T09:33:27.992Z,83.90
2023-02-14T09:35:54.807Z,82.60
2023-02-14T09:38:21.505Z,81.10
2023-02-14T09:40:48.176Z,79.30
2023-02-14T09:43:33.047Z,76.80
2023-02-14T09:45:59.758Z,74.50
2023-02-14T09:48:30.817Z,73.60
2023-02-14T09:51:03.556Z,70.80
2023-02-14T09:53:35.309Z,69.00
2023-02-14T09:56:04.856Z,67.00
2023-02-14T09:58:36.467Z,65.00
2023-02-14T10:01:18.083Z,60.40
2023-02-14T10:04:05.740Z,63.00
2023-02-14T10:06:58.774Z,60.60
2023-02-14T10:09:37.840Z,58.90
2023-02-14T10:12:04.583Z,58.00
2023-02-14T10:14:32.115Z,56.50
2023-02-14T10:17:10.232Z,54.80
2023-02-14T10:19:44.174Z,53.30
2023-02-14T10:22:23.032Z,53.40
2023-02-14T10:24:52.495Z,52.20
2023-02-14T10:27:27.922Z,51.20
2023-02-14T10:29:54.664Z,49.80
2023-02-14T10:32:32.106Z,51.40
2023-02-14T10:34:59.982Z,49.70
2023-02-14T10:37:35.510Z,49.20
2023-02-14T10:40:08.068Z,47.90
2023-02-14T10:42:57.871Z,47.60
2023-02-14T10:45:33.867Z,46.70
2023-02-14T10:48:22.236Z,46.60
2023-02-14T10:51:19.352Z,45.70
2023-02-14T10:54:10.710Z,44.60
2023-02-14T10:56:40.388Z,43.10
2023-02-14T10:59:26.324Z,45.20
2023-02-14T11:01:56.079Z,44.50
2023-02-14T11:04:23.659Z,44.30
2023-02-14T11:06:50.317Z,43.90
2023-02-14T11:09:20.134Z,43.40
2023-02-14T11:11:59.570Z,42.90
2023-02-14T11:17:38.713Z,42.40
2023-02-14T11:20:20.777Z,41.80
2023-02-14T11:22:47.391Z,41.50
2023-02-14T11:25:27.667Z,41.20
2023-02-14T11:28:04.549Z,41.20
2023-02-14T11:30:35.108Z,40.90
2023-02-14T11:33:02.136Z,40.40
2023-02-14T11:35:29.271Z,40.10
2023-02-14T11:37:56.424Z,40.10
2023-02-14T11:40:30.272Z,39.80
2023-02-14T11:43:17.619Z,39.70
2023-02-14T11:45:45.598Z,39.60
2023-02-14T11:48:39.120Z,39.40
2023-02-14T11:51:07.986Z,38.60
2023-02-14T11:53:45.413Z,38.20
2023-02-14T11:56:12.213Z,37.40
2023-02-14T11:58:55.810Z,37.60
2023-02-14T12:01:28.169Z,37.60
2023-02-14T12:03:55.564Z,37.00
2023-02-14T12:06:26.757Z,36.50
2023-02-14T12:09:11.506Z,35.70
2023-02-14T12:11:38.424Z,36.10
2023-02-14T12:14:05.196Z,35.70
2023-02-14T12:16:41.408Z,35.30
2023-02-14T12:19:17.361Z,34.70
2023-02-14T12:21:48.112Z,34.80
2023-02-14T12:24:36.585Z,34.90
2023-02-14T12:27:19.233Z,34.30
2023-02-14T12:29:59.967Z,34.50
2023-02-14T12:32:28.469Z,34.70
2023-02-14T12:35:03.774Z,34.10
2023-02-14T12:37:39.624Z,34.00
2023-02-14T12:40:15.258Z,33.60
2023-02-14T12:42:59.963Z,34.40
2023-02-14T12:45:47.077Z,33.20
2023-02-14T12:48:20.884Z,33.20
2023-02-14T12:51:41.826Z,32.90
2023-02-14T12:54:26.569Z,34.00
2023-02-14T12:57:08.365Z,33.80
2023-02-14T13:00:01.013Z,33.20
2023-02-14T13:02:58.048Z,32.80
2023-02-14T13:05:50.850Z,32.40
2023-02-14T13:08:26.955Z,32.40
2023-02-14T13:11:12.435Z,32.40
2023-02-14T13:14:07.292Z,31.80
2023-02-14T13:16:40.204Z,31.90
2023-02-14T13:19:33.321Z,31.80
2023-02-14T13:22:00.316Z,32.10
2023-02-14T13:24:33.938Z,31.90
2023-02-14T13:27:01.612Z,31.60
2023-02-14T13:29:31.626Z,31.40
2023-02-14T13:32:00.849Z,31.20
2023-02-14T13:34:30.622Z,31.30
2023-02-14T13:36:58.137Z,31.00
2023-02-14T13:39:34.380Z,30.90
2023-02-14T13:42:04.920Z,30.50
2023-02-14T13:44:48.047Z,30.80
2023-02-14T13:47:18.507Z,30.90
2023-02-14T13:49:49.260Z,31.00
2023-02-14T13:52:40.896Z,31.10
2023-02-14T13:55:09.122Z,31.00
2023-02-14T13:57:36.940Z,31.30
2023-02-14T14:00:39.525Z,31.10
2023-02-14T14:03:08.106Z,30.90
2023-02-14T14:05:37.569Z,31.20
2023-02-14T14:08:22.695Z,31.00
2023-02-14T14:11:01.068Z,31.00
2023-02-14T14:13:42.788Z,31.10
2023-02-14T14:16:25.697Z,31.30
2023-02-14T14:19:03.585Z,31.80
2023-02-14T14:21:43.730Z,31.90
2023-02-14T14:24:23.426Z,31.20
2023-02-14T14:26:57.222Z,30.90
2023-02-14T14:29:56.708Z,31.30
2023-02-14T14:32:27.492Z,31.10
2023-02-14T14:34:55.586Z,31.40
2023-02-14T14:37:30.089Z,31.50
2023-02-14T14:39:58.391Z,31.50
2023-02-14T14:42:36.348Z,31.20
2023-02-14T14:45:05.182Z,30.90
2023-02-14T14:47:41.555Z,31.50
2023-02-14T14:50:13.472Z,32.40
2023-02-14T14:52:43.222Z,33.30
2023-02-14T14:55:23.045Z,34.90
2023-02-14T14:58:00.279Z,35.40
2023-02-14T15:00:28.206Z,35.30
2023-02-14T15:03:21.660Z,36.20
2023-02-14T15:05:49.178Z,36.70
2023-02-14T15:08:36.065Z,37.10
2023-02-14T15:11:10.019Z,37.70
2023-02-14T15:13:50.070Z,38.10
2023-02-14T15:16:24.944Z,38.90
2023-02-14T15:18:53.056Z,38.40
2023-02-14T15:21:19.707Z,39.00
2023-02-14T15:23:46.434Z,39.80
2023-02-14T15:26:34.210Z,39.70
2023-02-14T15:29:02.729Z,40.70
2023-02-14T15:31:39.754Z,40.30
2023-02-14T15:34:06.869Z,41.60
2023-02-14T15:36:34.138Z,43.00
2023-02-14T15:39:04.531Z,44.10
2023-02-14T15:41:31.287Z,45.20
2023-02-14T15:43:57.947Z,45.80
2023-02-14T15:46:24.715Z,46.50
2023-02-14T15:48:51.576Z,47.20
2023-02-14T15:51:22.762Z,47.60
2023-02-14T15:53:59.926Z,48.30
2023-02-14T15:56:34.499Z,48.90
2023-02-14T15:59:04.692Z,49.10
2023-02-14T16:01:31.970Z,49.60
2023-02-14T16:04:00.344Z,50.00
2023-02-14T16:06:35.729Z,50.50
2023-02-14T16:09:03.405Z,50.70
2023-02-14T16:11:37.050Z,50.90
2023-02-14T16:14:28.544Z,51.20
2023-02-14T16:17:31.228Z,51.50
2023-02-14T16:19:57.988Z,51.60
2023-02-14T16:22:27.001Z,51.50
2023-02-14T16:24:53.638Z,51.70
2023-02-14T16:27:20.316Z,51.80
2023-02-14T16:29:50.044Z,52.20
2023-02-14T16:32:20.114Z,52.30
2023-02-14T16:34:46.837Z,53.00
2023-02-14T16:37:19.992Z,53.00
2023-02-14T16:39:46.756Z,53.50
2023-02-14T16:42:16.761Z,53.70
2023-02-14T16:44:44.109Z,54.00
2023-02-14T16:47:14.430Z,54.30
2023-02-14T16:49:41.167Z,54.40
2023-02-14T16:52:17.607Z,55.20
2023-02-14T16:54:46.434Z,55.40
2023-02-14T16:57:27.726Z,55.70
2023-02-14T16:59:55.576Z,56.40
2023-02-14T17:02:22.313Z,56.40
2023-02-14T17:04:49.341Z,56.40
2023-02-14T17:07:16.606Z,56.50
2023-02-14T17:09:48.633Z,56.60
2023-02-14T17:12:18.219Z,57.00
2023-02-14T17:14:45.924Z,57.10
2023-02-14T17:17:12.618Z,59.90
2023-02-14T17:19:40.731Z,57.30
2023-02-14T17:22:07.551Z,57.70
2023-02-14T17:24:35.686Z,57.80
2023-02-14T17:27:02.416Z,57.90
2023-02-14T17:29:29.067Z,58.20
2023-02-14T17:31:55.947Z,58.60
2023-02-14T17:34:22.707Z,58.60
2023-02-14T17:36:51.475Z,59.00
2023-02-14T17:39:18.916Z,59.10
2023-02-14T17:41:45.639Z,59.30
2023-02-14T17:44:12.356Z,59.30
2023-02-14T17:46:39.108Z,59.40
2023-02-14T17:49:05.855Z,59.70
2023-02-14T17:51:32.550Z,59.60
2023-02-14T17:53:59.278Z,60.00
2023-02-14T17:56:26.267Z,59.70
2023-02-14T17:58:53.262Z,60.30
2023-02-14T18:01:21.605Z,60.40
2023-02-14T18:03:48.445Z,60.70
2023-02-14T18:06:15.191Z,60.70
2023-02-14T18:08:44.392Z,60.90
2023-02-14T18:11:11.757Z,61.10
2023-02-14T18:13:40.894Z,61.00
2023-02-14T18:16:09.308Z,61.10
2023-02-14T18:18:36.050Z,61.40
2023-02-14T18:21:03.692Z,61.30
2023-02-14T18:23:30.830Z,61.50
2023-02-14T18:25:58.867Z,61.80
2023-02-14T18:28:25.944Z,62.10
2023-02-14T18:30:53.232Z,62.10
2023-02-14T18:33:20.424Z,62.10
2023-02-14T18:35:53.882Z,62.20
2023-02-14T18:38:20.577Z,62.40
2023-02-14T18:40:50.062Z,62.30
2023-02-14T18:43:16.758Z,62.60
2023-02-14T18:45:43.606Z,62.90
2023-02-14T18:48:10.377Z,62.80
2023-02-14T18:50:37.324Z,62.90
2023-02-14T18:53:05.093Z,63.00
2023-02-14T18:55:31.853Z,63.10
2023-02-14T18:57:58.564Z,63.30
2023-02-14T19:00:25.312Z,63.40
2023-02-14T19:02:52.044Z,63.50
2023-02-14T19:05:18.786Z,63.80
2023-02-14T19:07:45.686Z,63.70
2023-02-14T19:10:12.477Z,63.70
2023-02-14T19:12:39.425Z,64.10
2023-02-14T19:15:06.453Z,64.00
2023-02-14T19:17:33.378Z,64.30
2023-02-14T19:20:00.088Z,64.30
2023-02-14T19:22:26.785Z,64.60
2023-02-14T19:24:53.770Z,64.60
2023-02-14T19:27:20.536Z,64.80
2023-02-14T19:29:47.354Z,64.90
2023-02-14T19:32:14.189Z,65.10
2023-02-14T19:34:40.842Z,65.20
2023-02-14T19:37:07.452Z,65.40
2023-02-14T19:39:37.240Z,65.60
2023-02-14T19:42:03.905Z,65.80
2023-02-14T19:44:30.888Z,67.00
2023-02-14T19:46:58.342Z,65.80
2023-02-14T19:49:24.974Z,65.90
2023-02-14T19:51:51.685Z,66.10
2023-02-14T19:54:18.533Z,66.10
2023-02-14T19:56:46.446Z,66.30
2023-02-14T19:59:13.792Z,66.30
2023-02-14T20:01:44.440Z,66.90
2023-02-14T20:04:12.809Z,66.90
2023-02-14T20:06:39.393Z,67.00
2023-02-14T20:09:06.188Z,67.10
2023-02-14T20:11:46.701Z,67.20
2023-02-14T20:14:13.620Z,67.30
2023-02-14T20:16:40.365Z,67.20
2023-02-14T20:19:10.916Z,67.40
2023-02-14T20:21:37.767Z,67.60
2023-02-14T20:24:04.931Z,67.90
2023-02-14T20:26:32.879Z,67.90
2023-02-14T20:29:00.207Z,67.90
2023-02-14T20:31:27.018Z,67.90
2023-02-14T20:33:53.729Z,68.10
2023-02-14T20:36:20.550Z,68.10
2023-02-14T20:38:56.311Z,68.10
2023-02-14T20:41:23.031Z,68.10
2023-02-14T20:43:49.929Z,68.10
2023-02-14T20:46:16.633Z,68.30
2023-02-14T20:48:43.310Z,68.30
2023-02-14T20:51:11.660Z,68.30
2023-02-14T20:53:39.102Z,68.50
2023-02-14T20:56:06.262Z,68.80
2023-02-14T20:58:33.413Z,68.90
2023-02-14T21:01:13.080Z,69.20
2023-02-14T21:03:40.301Z,69.40
2023-02-14T21:06:08.184Z,69.40
2023-02-14T21:08:35.484Z,69.30
2023-02-14T21:11:03.382Z,69.30
2023-02-14T21:13:30.139Z,69.40
2023-02-14T21:16:21.793Z,69.30
2023-02-14T21:18:50.945Z,69.60
2023-02-14T21:21:34.411Z,69.50
2023-02-14T21:24:02.500Z,69.60
2023-02-14T21:26:30.533Z,69.50
2023-02-14T21:28:57.253Z,69.70
2023-02-14T21:31:24.002Z,69.70
2023-02-14T21:33:55.017Z,69.80
2023-02-14T21:36:22.861Z,70.00
2023-02-14T21:38:51.163Z,70.10
2023-02-14T21:41:22.679Z,70.40
2023-02-14T21:43:51.008Z,70.30
2023-02-14T21:46:18.762Z,70.40
2023-02-14T21:48:45.685Z,70.40
2023-02-14T21:51:12.378Z,70.40
2023-02-14T21:53:39.070Z,70.40
2023-02-14T21:56:06.914Z,70.50
2023-02-14T21:58:33.592Z,70.70
2023-02-14T22:01:00.619Z,70.90
2023-02-14T22:03:27.475Z,71.00
2023-02-14T22:06:01.351Z,71.00
2023-02-14T22:08:28.379Z,71.10
2023-02-14T22:11:02.889Z,71.30
2023-02-14T22:13:29.714Z,71.40
2023-02-14T22:16:04.704Z,71.50
2023-02-14T22:18:31.443Z,71.40
2023-02-14T22:21:22.558Z,71.60
2023-02-14T22:23:49.294Z,71.60
2023-02-14T22:26:16.962Z,71.70
2023-02-14T22:28:45.030Z,71.50
2023-02-14T22:31:12.071Z,71.40
2023-02-14T22:33:39.062Z,71.60
2023-02-14T22:36:06.423Z,71.60
2023-02-14T22:38:33.446Z,71.60
2023-02-14T22:41:06.078Z,71.70
2023-02-14T22:43:33.059Z,71.90
2023-02-14T22:46:07.595Z,72.00
2023-02-14T22:48:34.779Z,72.10
2023-02-14T22:51:27.051Z,72.10
2023-02-14T22:54:04.466Z,72.10
2023-02-14T22:56:32.888Z,72.20
2023-02-14T22:59:01.519Z,72.30
2023-02-14T23:01:28.414Z,72.40
2023-02-14T23:03:56.130Z,72.40
2023-02-14T23:06:23.758Z,72.70
2023-02-14T23:08:50.516Z,72.80
2023-02-14T23:11:19.173Z,72.70
2023-02-14T23:13:45.867Z,72.70
2023-02-14T23:16:12.604Z,72.90
2023-02-14T23:18:39.313Z,72.90
2023-02-14T23:21:12.809Z,72.90
2023-02-14T23:23:39.452Z,72.90
2023-02-14T23:26:06.125Z,73.10
2023-02-14T23:28:32.710Z,73.20
2023-02-14T23:31:02.719Z,73.00
2023-02-14T23:33:29.344Z,73.10
2023-02-14T23:35:56.025Z,73.30
2023-02-14T23:38:22.771Z,73.20
2023-02-14T23:40:49.408Z,73.30
2023-02-14T23:43:16.078Z,73.40
2023-02-14T23:45:42.748Z,73.40
2023-02-14T23:48:09.422Z,73.50
2023-02-14T23:50:36.105Z,73.60
2023-02-14T23:53:02.744Z,73.70
2023-02-14T23:55:29.393Z,73.70
2023-02-14T23:57:56.031Z,73.70
